sensor_id;sensor_type;location;lat;lon;timestamp;pressure;altitude;pressure_sealevel;temperature
68012;BMP180;54794;48.348;7.878;2023-05-10T00:00:13;98589.00;;;16.40
68012;BMP180;54794;48.348;7.878;2023-05-10T00:02:41;98592.00;;;16.40
68012;BMP180;54794;48.348;7.878;2023-05-10T00:05:09;98591.00;;;16.40
68012;BMP180;54794;48.348;7.878;2023-05-10T00:07:36;98593.00;;;16.40
68012;BMP180;54794;48.348;7.878;2023-05-10T00:10:04;98598.00;;;16.50
68012;BMP180;54794;48.348;7.878;2023-05-10T00:12:31;98587.00;;;16.40
68012;BMP180;54794;48.348;7.878;2023-05-10T00:14:59;98596.00;;;16.40
68012;BMP180;54794;48.348;7.878;2023-05-10T00:17:37;98595.00;;;16.30
68012;BMP180;54794;48.348;7.878;2023-05-10T00:20:20;98584.00;;;16.50
68012;BMP180;54794;48.348;7.878;2023-05-10T00:22:50;98588.00;;;16.20
68012;BMP180;54794;48.348;7.878;2023-05-10T00:25:20;98597.00;;;16.30
68012;BMP180;54794;48.348;7.878;2023-05-10T00:27:59;98593.00;;;16.30
68012;BMP180;54794;48.348;7.878;2023-05-10T00:30:46;98595.00;;;16.20
68012;BMP180;54794;48.348;7.878;2023-05-10T00:33:42;98595.00;;;16.20
68012;BMP180;54794;48.348;7.878;2023-05-10T00:36:14;98592.00;;;16.40
68012;BMP180;54794;48.348;7.878;2023-05-10T00:38:41;98590.00;;;16.10
68012;BMP180;54794;48.348;7.878;2023-05-10T00:41:08;98590.00;;;16.30
68012;BMP180;54794;48.348;7.878;2023-05-10T00:43:36;98589.00;;;16.30
68012;BMP180;54794;48.348;7.878;2023-05-10T00:46:04;98581.00;;;16.30
68012;BMP180;54794;48.348;7.878;2023-05-10T00:48:43;98586.00;;;16.40
68012;BMP180;54794;48.348;7.878;2023-05-10T00:51:10;98586.00;;;16.40
68012;BMP180;54794;48.348;7.878;2023-05-10T00:53:38;98574.00;;;16.50
68012;BMP180;54794;48.348;7.878;2023-05-10T00:56:05;98578.00;;;16.50
68012;BMP180;54794;48.348;7.878;2023-05-10T00:58:33;98580.00;;;16.30
68012;BMP180;54794;48.348;7.878;2023-05-10T01:01:01;98578.00;;;16.20
68012;BMP180;54794;48.348;7.878;2023-05-10T01:03:38;98574.00;;;16.50
68012;BMP180;54794;48.348;7.878;2023-05-10T01:06:30;98582.00;;;16.30
68012;BMP180;54794;48.348;7.878;2023-05-10T01:09:00;98568.00;;;16.40
68012;BMP180;54794;48.348;7.878;2023-05-10T01:11:43;98576.00;;;16.30
68012;BMP180;54794;48.348;7.878;2023-05-10T01:14:25;98580.00;;;16.20
68012;BMP180;54794;48.348;7.878;2023-05-10T01:16:56;98576.00;;;16.20
68012;BMP180;54794;48.348;7.878;2023-05-10T01:19:34;98584.00;;;16.10
68012;BMP180;54794;48.348;7.878;2023-05-10T01:25:37;98584.00;;;16.20
68012;BMP180;54794;48.348;7.878;2023-05-10T01:34:42;98590.00;;;16.10
68012;BMP180;54794;48.348;7.878;2023-05-10T01:37:40;98584.00;;;16.30
68012;BMP180;54794;48.348;7.878;2023-05-10T01:43:57;98576.00;;;16.30
68012;BMP180;54794;48.348;7.878;2023-05-10T01:46:41;98589.00;;;16.30
68012;BMP180;54794;48.348;7.878;2023-05-10T01:49:31;98595.00;;;16.30
68012;BMP180;54794;48.348;7.878;2023-05-10T01:52:25;98599.00;;;16.30
68012;BMP180;54794;48.348;7.878;2023-05-10T01:55:02;98598.00;;;16.20
68012;BMP180;54794;48.348;7.878;2023-05-10T01:57:37;98596.00;;;16.20
68012;BMP180;54794;48.348;7.878;2023-05-10T02:00:09;98594.00;;;16.20
68012;BMP180;54794;48.348;7.878;2023-05-10T02:02:44;98600.00;;;16.30
68012;BMP180;54794;48.348;7.878;2023-05-10T02:05:14;98597.00;;;16.30
68012;BMP180;54794;48.348;7.878;2023-05-10T02:07:42;98597.00;;;16.00
68012;BMP180;54794;48.348;7.878;2023-05-10T02:10:11;98597.00;;;16.20
68012;BMP180;54794;48.348;7.878;2023-05-10T02:12:46;98601.00;;;16.20
68012;BMP180;54794;48.348;7.878;2023-05-10T02:15:22;98617.00;;;16.20
68012;BMP180;54794;48.348;7.878;2023-05-10T02:17:51;98612.00;;;16.30
68012;BMP180;54794;48.348;7.878;2023-05-10T02:20:22;98620.00;;;16.00
68012;BMP180;54794;48.348;7.878;2023-05-10T02:22:54;98616.00;;;16.20
68012;BMP180;54794;48.348;7.878;2023-05-10T02:25:23;98612.00;;;16.30
68012;BMP180;54794;48.348;7.878;2023-05-10T02:27:55;98616.00;;;16.30
68012;BMP180;54794;48.348;7.878;2023-05-10T02:30:24;98611.00;;;16.20
68012;BMP180;54794;48.348;7.878;2023-05-10T02:32:52;98615.00;;;16.20
68012;BMP180;54794;48.348;7.878;2023-05-10T02:35:22;98617.00;;;16.20
68012;BMP180;54794;48.348;7.878;2023-05-10T02:37:50;98619.00;;;16.20
68012;BMP180;54794;48.348;7.878;2023-05-10T02:40:19;98619.00;;;16.10
68012;BMP180;54794;48.348;7.878;2023-05-10T02:42:50;98616.00;;;16.20
68012;BMP180;54794;48.348;7.878;2023-05-10T02:45:24;98622.00;;;16.20
68012;BMP180;54794;48.348;7.878;2023-05-10T02:47:52;98626.00;;;16.00
68012;BMP180;54794;48.348;7.878;2023-05-10T02:50:21;98620.00;;;16.10
68012;BMP180;54794;48.348;7.878;2023-05-10T02:52:54;98614.00;;;16.10
68012;BMP180;54794;48.348;7.878;2023-05-10T02:55:33;98619.00;;;15.90
68012;BMP180;54794;48.348;7.878;2023-05-10T02:58:02;98617.00;;;16.10
68012;BMP180;54794;48.348;7.878;2023-05-10T03:00:30;98619.00;;;16.20
68012;BMP180;54794;48.348;7.878;2023-05-10T03:02:57;98613.00;;;16.10
68012;BMP180;54794;48.348;7.878;2023-05-10T03:05:25;98624.00;;;16.00
68012;BMP180;54794;48.348;7.878;2023-05-10T03:07:52;98643.00;;;15.70
68012;BMP180;54794;48.348;7.878;2023-05-10T03:10:27;98638.00;;;15.70
68012;BMP180;54794;48.348;7.878;2023-05-10T03:16:07;98641.00;;;15.90
68012;BMP180;54794;48.348;7.878;2023-05-10T03:18:55;98641.00;;;16.00
68012;BMP180;54794;48.348;7.878;2023-05-10T03:21:25;98634.00;;;16.00
68012;BMP180;54794;48.348;7.878;2023-05-10T03:24:07;98640.00;;;16.00
68012;BMP180;54794;48.348;7.878;2023-05-10T03:26:56;98642.00;;;16.00
68012;BMP180;54794;48.348;7.878;2023-05-10T03:29:40;98637.00;;;16.10
68012;BMP180;54794;48.348;7.878;2023-05-10T03:32:18;98642.00;;;15.90
68012;BMP180;54794;48.348;7.878;2023-05-10T03:34:53;98638.00;;;15.90
68012;BMP180;54794;48.348;7.878;2023-05-10T03:37:39;98652.00;;;15.80
68012;BMP180;54794;48.348;7.878;2023-05-10T03:40:11;98635.00;;;16.00
68012;BMP180;54794;48.348;7.878;2023-05-10T03:43:05;98631.00;;;15.90
68012;BMP180;54794;48.348;7.878;2023-05-10T03:45:38;98651.00;;;15.60
68012;BMP180;54794;48.348;7.878;2023-05-10T03:48:28;98649.00;;;15.80
68012;BMP180;54794;48.348;7.878;2023-05-10T03:51:18;98653.00;;;15.90
68012;BMP180;54794;48.348;7.878;2023-05-10T03:53:59;98630.00;;;15.90
68012;BMP180;54794;48.348;7.878;2023-05-10T03:56:45;98640.00;;;15.60
68012;BMP180;54794;48.348;7.878;2023-05-10T03:59:29;98654.00;;;15.70
68012;BMP180;54794;48.348;7.878;2023-05-10T04:02:21;98644.00;;;15.80
68012;BMP180;54794;48.348;7.878;2023-05-10T04:05:05;98633.00;;;15.60
68012;BMP180;54794;48.348;7.878;2023-05-10T04:07:36;98651.00;;;15.60
68012;BMP180;54794;48.348;7.878;2023-05-10T04:10:11;98640.00;;;15.80
68012;BMP180;54794;48.348;7.878;2023-05-10T04:12:50;98650.00;;;15.80
68012;BMP180;54794;48.348;7.878;2023-05-10T04:15:31;98644.00;;;15.70
68012;BMP180;54794;48.348;7.878;2023-05-10T04:18:09;98648.00;;;15.50
68012;BMP180;54794;48.348;7.878;2023-05-10T04:20:39;98640.00;;;15.80
68012;BMP180;54794;48.348;7.878;2023-05-10T04:23:13;98645.00;;;15.80
68012;BMP180;54794;48.348;7.878;2023-05-10T04:25:51;98650.00;;;15.80
68012;BMP180;54794;48.348;7.878;2023-05-10T04:28:28;98655.00;;;15.80
68012;BMP180;54794;48.348;7.878;2023-05-10T04:31:09;98651.00;;;15.60
68012;BMP180;54794;48.348;7.878;2023-05-10T04:33:36;98657.00;;;15.70
68012;BMP180;54794;48.348;7.878;2023-05-10T04:36:04;98652.00;;;15.70
68012;BMP180;54794;48.348;7.878;2023-05-10T04:38:31;98659.00;;;15.90
68012;BMP180;54794;48.348;7.878;2023-05-10T04:41:07;98654.00;;;15.80
68012;BMP180;54794;48.348;7.878;2023-05-10T04:43:35;98653.00;;;15.70
68012;BMP180;54794;48.348;7.878;2023-05-10T04:46:02;98656.00;;;15.70
68012;BMP180;54794;48.348;7.878;2023-05-10T04:48:29;98656.00;;;15.60
68012;BMP180;54794;48.348;7.878;2023-05-10T04:50:56;98659.00;;;15.80
68012;BMP180;54794;48.348;7.878;2023-05-10T04:53:23;98657.00;;;15.30
68012;BMP180;54794;48.348;7.878;2023-05-10T04:55:50;98660.00;;;15.60
68012;BMP180;54794;48.348;7.878;2023-05-10T04:58:17;98660.00;;;15.70
68012;BMP180;54794;48.348;7.878;2023-05-10T05:00:44;98657.00;;;15.90
68012;BMP180;54794;48.348;7.878;2023-05-10T05:03:11;98658.00;;;15.90
68012;BMP180;54794;48.348;7.878;2023-05-10T05:05:38;98666.00;;;15.70
68012;BMP180;54794;48.348;7.878;2023-05-10T05:08:05;98672.00;;;15.90
68012;BMP180;54794;48.348;7.878;2023-05-10T05:10:32;98679.00;;;16.00
68012;BMP180;54794;48.348;7.878;2023-05-10T05:12:59;98675.00;;;16.00
68012;BMP180;54794;48.348;7.878;2023-05-10T05:15:29;98667.00;;;16.00
68012;BMP180;54794;48.348;7.878;2023-05-10T05:18:00;98675.00;;;16.00
68012;BMP180;54794;48.348;7.878;2023-05-10T05:20:27;98675.00;;;16.00
68012;BMP180;54794;48.348;7.878;2023-05-10T05:23:00;98678.00;;;16.10
68012;BMP180;54794;48.348;7.878;2023-05-10T05:25:40;98689.00;;;15.80
68012;BMP180;54794;48.348;7.878;2023-05-10T05:28:25;98702.00;;;15.70
68012;BMP180;54794;48.348;7.878;2023-05-10T05:30:56;98703.00;;;15.90
68012;BMP180;54794;48.348;7.878;2023-05-10T05:33:33;98707.00;;;15.90
68012;BMP180;54794;48.348;7.878;2023-05-10T05:39:10;98711.00;;;16.00
68012;BMP180;54794;48.348;7.878;2023-05-10T05:41:43;98712.00;;;15.70
68012;BMP180;54794;48.348;7.878;2023-05-10T05:44:10;98716.00;;;15.80
68012;BMP180;54794;48.348;7.878;2023-05-10T05:46:39;98730.00;;;15.50
68012;BMP180;54794;48.348;7.878;2023-05-10T05:49:33;98728.00;;;15.80
68012;BMP180;54794;48.348;7.878;2023-05-10T05:52:04;98727.00;;;15.80
68012;BMP180;54794;48.348;7.878;2023-05-10T05:54:56;98731.00;;;15.60
68012;BMP180;54794;48.348;7.878;2023-05-10T05:57:36;98731.00;;;15.80
68012;BMP180;54794;48.348;7.878;2023-05-10T06:00:25;98733.00;;;15.90
68012;BMP180;54794;48.348;7.878;2023-05-10T06:02:58;98733.00;;;15.70
68012;BMP180;54794;48.348;7.878;2023-05-10T06:05:32;98738.00;;;16.00
68012;BMP180;54794;48.348;7.878;2023-05-10T06:08:06;98741.00;;;16.00
68012;BMP180;54794;48.348;7.878;2023-05-10T06:10:42;98743.00;;;16.00
68012;BMP180;54794;48.348;7.878;2023-05-10T06:13:09;98753.00;;;15.60
68012;BMP180;54794;48.348;7.878;2023-05-10T06:15:36;98753.00;;;15.70
68012;BMP180;54794;48.348;7.878;2023-05-10T06:18:04;98744.00;;;15.80
68012;BMP180;54794;48.348;7.878;2023-05-10T06:20:31;98752.00;;;16.00
68012;BMP180;54794;48.348;7.878;2023-05-10T06:22:59;98756.00;;;16.00
68012;BMP180;54794;48.348;7.878;2023-05-10T06:25:27;98753.00;;;15.80
68012;BMP180;54794;48.348;7.878;2023-05-10T06:27:54;98755.00;;;15.90
68012;BMP180;54794;48.348;7.878;2023-05-10T06:30:25;98759.00;;;15.90
68012;BMP180;54794;48.348;7.878;2023-05-10T06:32:54;98767.00;;;15.90
68012;BMP180;54794;48.348;7.878;2023-05-10T06:35:22;98761.00;;;15.80
68012;BMP180;54794;48.348;7.878;2023-05-10T06:37:50;98762.00;;;15.90
68012;BMP180;54794;48.348;7.878;2023-05-10T06:40:18;98756.00;;;16.10
68012;BMP180;54794;48.348;7.878;2023-05-10T06:42:47;98770.00;;;16.10
68012;BMP180;54794;48.348;7.878;2023-05-10T06:45:15;98763.00;;;15.80
68012;BMP180;54794;48.348;7.878;2023-05-10T06:47:43;98765.00;;;16.10
68012;BMP180;54794;48.348;7.878;2023-05-10T06:50:11;98769.00;;;16.20
68012;BMP180;54794;48.348;7.878;2023-05-10T06:52:38;98759.00;;;16.20
68012;BMP180;54794;48.348;7.878;2023-05-10T06:55:06;98763.00;;;16.30
68012;BMP180;54794;48.348;7.878;2023-05-10T06:57:33;98767.00;;;16.20
68012;BMP180;54794;48.348;7.878;2023-05-10T07:00:00;98757.00;;;16.10
68012;BMP180;54794;48.348;7.878;2023-05-10T07:02:27;98770.00;;;15.60
68012;BMP180;54794;48.348;7.878;2023-05-10T07:04:54;98772.00;;;16.00
68012;BMP180;54794;48.348;7.878;2023-05-10T07:07:21;98771.00;;;16.10
68012;BMP180;54794;48.348;7.878;2023-05-10T07:09:48;98767.00;;;16.20
68012;BMP180;54794;48.348;7.878;2023-05-10T07:12:16;98760.00;;;16.10
68012;BMP180;54794;48.348;7.878;2023-05-10T07:14:43;98769.00;;;16.20
68012;BMP180;54794;48.348;7.878;2023-05-10T07:17:12;98770.00;;;16.10
68012;BMP180;54794;48.348;7.878;2023-05-10T07:19:39;98763.00;;;16.20
68012;BMP180;54794;48.348;7.878;2023-05-10T07:22:06;98769.00;;;16.10
68012;BMP180;54794;48.348;7.878;2023-05-10T07:24:33;98766.00;;;16.20
68012;BMP180;54794;48.348;7.878;2023-05-10T07:27:00;98767.00;;;16.40
68012;BMP180;54794;48.348;7.878;2023-05-10T07:29:27;98769.00;;;16.20
68012;BMP180;54794;48.348;7.878;2023-05-10T07:31:55;98772.00;;;16.30
68012;BMP180;54794;48.348;7.878;2023-05-10T07:34:25;98767.00;;;16.60
68012;BMP180;54794;48.348;7.878;2023-05-10T07:36:52;98775.00;;;16.80
68012;BMP180;54794;48.348;7.878;2023-05-10T07:39:19;98773.00;;;16.80
68012;BMP180;54794;48.348;7.878;2023-05-10T07:41:54;98777.00;;;17.00
68012;BMP180;54794;48.348;7.878;2023-05-10T07:44:22;98779.00;;;17.10
68012;BMP180;54794;48.348;7.878;2023-05-10T07:46:50;98784.00;;;16.90
68012;BMP180;54794;48.348;7.878;2023-05-10T07:49:17;98784.00;;;16.50
68012;BMP180;54794;48.348;7.878;2023-05-10T07:51:44;98784.00;;;16.50
68012;BMP180;54794;48.348;7.878;2023-05-10T07:54:11;98783.00;;;16.60
68012;BMP180;54794;48.348;7.878;2023-05-10T07:56:39;98791.00;;;16.50
68012;BMP180;54794;48.348;7.878;2023-05-10T07:59:08;98785.00;;;16.60
68012;BMP180;54794;48.348;7.878;2023-05-10T08:01:38;98793.00;;;16.40
68012;BMP180;54794;48.348;7.878;2023-05-10T08:04:05;98792.00;;;16.10
68012;BMP180;54794;48.348;7.878;2023-05-10T08:06:32;98797.00;;;16.40
68012;BMP180;54794;48.348;7.878;2023-05-10T08:08:58;98794.00;;;16.70
68012;BMP180;54794;48.348;7.878;2023-05-10T08:11:25;98780.00;;;16.50
68012;BMP180;54794;48.348;7.878;2023-05-10T08:13:54;98780.00;;;16.80
68012;BMP180;54794;48.348;7.878;2023-05-10T08:16:21;98780.00;;;16.70
68012;BMP180;54794;48.348;7.878;2023-05-10T08:18:48;98779.00;;;17.00
68012;BMP180;54794;48.348;7.878;2023-05-10T08:21:17;98784.00;;;17.10
68012;BMP180;54794;48.348;7.878;2023-05-10T08:23:44;98782.00;;;17.20
68012;BMP180;54794;48.348;7.878;2023-05-10T08:26:11;98769.00;;;17.20
68012;BMP180;54794;48.348;7.878;2023-05-10T08:28:38;98778.00;;;16.80
68012;BMP180;54794;48.348;7.878;2023-05-10T08:31:06;98776.00;;;16.80
68012;BMP180;54794;48.348;7.878;2023-05-10T08:33:33;98780.00;;;16.90
68012;BMP180;54794;48.348;7.878;2023-05-10T08:35:59;98796.00;;;16.70
68012;BMP180;54794;48.348;7.878;2023-05-10T08:38:26;98783.00;;;16.20
68012;BMP180;54794;48.348;7.878;2023-05-10T08:40:55;98798.00;;;15.90
68012;BMP180;54794;48.348;7.878;2023-05-10T08:43:29;98802.00;;;15.40
68012;BMP180;54794;48.348;7.878;2023-05-10T08:46:00;98797.00;;;15.40
68012;BMP180;54794;48.348;7.878;2023-05-10T08:48:30;98803.00;;;15.20
68012;BMP180;54794;48.348;7.878;2023-05-10T08:51:00;98805.00;;;15.30
68012;BMP180;54794;48.348;7.878;2023-05-10T08:53:30;98804.00;;;15.60
68012;BMP180;54794;48.348;7.878;2023-05-10T08:56:01;98801.00;;;15.60
68012;BMP180;54794;48.348;7.878;2023-05-10T08:58:28;98805.00;;;15.20
68012;BMP180;54794;48.348;7.878;2023-05-10T09:00:56;98804.00;;;15.30
68012;BMP180;54794;48.348;7.878;2023-05-10T09:03:24;98810.00;;;15.40
68012;BMP180;54794;48.348;7.878;2023-05-10T09:05:51;98807.00;;;15.10
68012;BMP180;54794;48.348;7.878;2023-05-10T09:08:18;98814.00;;;15.60
68012;BMP180;54794;48.348;7.878;2023-05-10T09:10:47;98815.00;;;15.50
68012;BMP180;54794;48.348;7.878;2023-05-10T09:13:15;98822.00;;;15.40
68012;BMP180;54794;48.348;7.878;2023-05-10T09:15:44;98826.00;;;15.10
68012;BMP180;54794;48.348;7.878;2023-05-10T09:18:12;98827.00;;;14.90
68012;BMP180;54794;48.348;7.878;2023-05-10T09:20:40;98821.00;;;15.40
68012;BMP180;54794;48.348;7.878;2023-05-10T09:23:07;98827.00;;;15.70
68012;BMP180;54794;48.348;7.878;2023-05-10T09:25:35;98831.00;;;15.90
68012;BMP180;54794;48.348;7.878;2023-05-10T09:28:02;98838.00;;;15.50
68012;BMP180;54794;48.348;7.878;2023-05-10T09:30:32;98833.00;;;15.60
68012;BMP180;54794;48.348;7.878;2023-05-10T09:33:00;98834.00;;;15.90
68012;BMP180;54794;48.348;7.878;2023-05-10T09:35:32;98838.00;;;15.60
68012;BMP180;54794;48.348;7.878;2023-05-10T09:38:03;98831.00;;;15.70
68012;BMP180;54794;48.348;7.878;2023-05-10T09:40:31;98838.00;;;15.60
68012;BMP180;54794;48.348;7.878;2023-05-10T09:43:08;98840.00;;;15.90
68012;BMP180;54794;48.348;7.878;2023-05-10T09:45:36;98837.00;;;16.30
68012;BMP180;54794;48.348;7.878;2023-05-10T09:48:05;98836.00;;;16.70
68012;BMP180;54794;48.348;7.878;2023-05-10T09:50:32;98842.00;;;16.60
68012;BMP180;54794;48.348;7.878;2023-05-10T09:53:02;98840.00;;;16.60
68012;BMP180;54794;48.348;7.878;2023-05-10T09:55:39;98823.00;;;16.60
68012;BMP180;54794;48.348;7.878;2023-05-10T09:58:07;98835.00;;;16.30
68012;BMP180;54794;48.348;7.878;2023-05-10T10:00:43;98834.00;;;16.90
68012;BMP180;54794;48.348;7.878;2023-05-10T10:03:18;98834.00;;;16.50
68012;BMP180;54794;48.348;7.878;2023-05-10T10:05:47;98830.00;;;16.60
68012;BMP180;54794;48.348;7.878;2023-05-10T10:08:24;98840.00;;;16.30
68012;BMP180;54794;48.348;7.878;2023-05-10T10:10:57;98836.00;;;16.60
68012;BMP180;54794;48.348;7.878;2023-05-10T10:13:24;98830.00;;;16.80
68012;BMP180;54794;48.348;7.878;2023-05-10T10:15:54;98837.00;;;17.00
68012;BMP180;54794;48.348;7.878;2023-05-10T10:18:21;98833.00;;;17.30
68012;BMP180;54794;48.348;7.878;2023-05-10T10:20:55;98837.00;;;17.10
68012;BMP180;54794;48.348;7.878;2023-05-10T10:23:22;98836.00;;;16.70
68012;BMP180;54794;48.348;7.878;2023-05-10T10:25:50;98824.00;;;16.60
68012;BMP180;54794;48.348;7.878;2023-05-10T10:28:46;98826.00;;;16.70
68012;BMP180;54794;48.348;7.878;2023-05-10T10:31:36;98835.00;;;16.90
68012;BMP180;54794;48.348;7.878;2023-05-10T10:34:08;98832.00;;;17.40
68012;BMP180;54794;48.348;7.878;2023-05-10T10:36:46;98833.00;;;17.70
68012;BMP180;54794;48.348;7.878;2023-05-10T10:39:14;98827.00;;;17.90
68012;BMP180;54794;48.348;7.878;2023-05-10T10:41:55;98831.00;;;18.30
68012;BMP180;54794;48.348;7.878;2023-05-10T10:52:27;98829.00;;;17.20
68012;BMP180;54794;48.348;7.878;2023-05-10T10:55:15;98828.00;;;18.20
68012;BMP180;54794;48.348;7.878;2023-05-10T10:57:56;98832.00;;;18.50
68012;BMP180;54794;48.348;7.878;2023-05-10T11:00:35;98823.00;;;17.90
68012;BMP180;54794;48.348;7.878;2023-05-10T11:03:12;98811.00;;;18.80
68012;BMP180;54794;48.348;7.878;2023-05-10T11:05:46;98817.00;;;18.90
68012;BMP180;54794;48.348;7.878;2023-05-10T11:08:16;98823.00;;;19.60
68012;BMP180;54794;48.348;7.878;2023-05-10T11:11:05;98824.00;;;19.40
68012;BMP180;54794;48.348;7.878;2023-05-10T11:13:40;98821.00;;;19.70
68012;BMP180;54794;48.348;7.878;2023-05-10T11:19:04;98813.00;;;18.70
68012;BMP180;54794;48.348;7.878;2023-05-10T11:21:33;98824.00;;;18.60
68012;BMP180;54794;48.348;7.878;2023-05-10T11:24:01;98811.00;;;18.60
68012;BMP180;54794;48.348;7.878;2023-05-10T11:26:35;98809.00;;;18.70
68012;BMP180;54794;48.348;7.878;2023-05-10T11:29:02;98810.00;;;19.30
68012;BMP180;54794;48.348;7.878;2023-05-10T11:31:31;98810.00;;;19.90
68012;BMP180;54794;48.348;7.878;2023-05-10T11:34:00;98804.00;;;18.90
68012;BMP180;54794;48.348;7.878;2023-05-10T11:36:35;98804.00;;;18.80
68012;BMP180;54794;48.348;7.878;2023-05-10T11:39:04;98805.00;;;18.40
68012;BMP180;54794;48.348;7.878;2023-05-10T11:41:31;98806.00;;;18.50
68012;BMP180;54794;48.348;7.878;2023-05-10T11:43:58;98802.00;;;18.70
68012;BMP180;54794;48.348;7.878;2023-05-10T11:46:28;98808.00;;;18.50
68012;BMP180;54794;48.348;7.878;2023-05-10T11:49:00;98806.00;;;19.10
68012;BMP180;54794;48.348;7.878;2023-05-10T11:51:28;98799.00;;;19.70
68012;BMP180;54794;48.348;7.878;2023-05-10T11:53:56;98806.00;;;18.70
68012;BMP180;54794;48.348;7.878;2023-05-10T11:56:24;98815.00;;;18.60
68012;BMP180;54794;48.348;7.878;2023-05-10T11:58:55;98809.00;;;18.80
68012;BMP180;54794;48.348;7.878;2023-05-10T12:01:29;98801.00;;;18.80
68012;BMP180;54794;48.348;7.878;2023-05-10T12:04:04;98809.00;;;18.70
68012;BMP180;54794;48.348;7.878;2023-05-10T12:06:40;98805.00;;;18.20
68012;BMP180;54794;48.348;7.878;2023-05-10T12:09:08;98807.00;;;18.30
68012;BMP180;54794;48.348;7.878;2023-05-10T12:11:40;98798.00;;;18.40
68012;BMP180;54794;48.348;7.878;2023-05-10T12:14:18;98804.00;;;18.50
68012;BMP180;54794;48.348;7.878;2023-05-10T12:16:48;98802.00;;;17.80
68012;BMP180;54794;48.348;7.878;2023-05-10T12:19:19;98809.00;;;18.30
68012;BMP180;54794;48.348;7.878;2023-05-10T12:21:49;98803.00;;;18.00
68012;BMP180;54794;48.348;7.878;2023-05-10T12:24:16;98814.00;;;18.10
68012;BMP180;54794;48.348;7.878;2023-05-10T12:26:45;98813.00;;;18.10
68012;BMP180;54794;48.348;7.878;2023-05-10T12:29:18;98805.00;;;18.20
68012;BMP180;54794;48.348;7.878;2023-05-10T12:31:54;98809.00;;;18.30
68012;BMP180;54794;48.348;7.878;2023-05-10T12:34:32;98810.00;;;18.20
68012;BMP180;54794;48.348;7.878;2023-05-10T12:37:00;98808.00;;;18.40
68012;BMP180;54794;48.348;7.878;2023-05-10T12:39:42;98811.00;;;18.70
68012;BMP180;54794;48.348;7.878;2023-05-10T12:42:09;98817.00;;;18.60
68012;BMP180;54794;48.348;7.878;2023-05-10T12:44:36;98806.00;;;17.90
68012;BMP180;54794;48.348;7.878;2023-05-10T12:47:03;98803.00;;;18.80
68012;BMP180;54794;48.348;7.878;2023-05-10T12:49:30;98810.00;;;18.80
68012;BMP180;54794;48.348;7.878;2023-05-10T12:51:57;98806.00;;;18.90
68012;BMP180;54794;48.348;7.878;2023-05-10T12:54:24;98795.00;;;18.90
68012;BMP180;54794;48.348;7.878;2023-05-10T12:56:51;98798.00;;;18.50
68012;BMP180;54794;48.348;7.878;2023-05-10T12:59:18;98797.00;;;18.60
68012;BMP180;54794;48.348;7.878;2023-05-10T13:01:45;98802.00;;;18.60
68012;BMP180;54794;48.348;7.878;2023-05-10T13:04:12;98792.00;;;18.90
68012;BMP180;54794;48.348;7.878;2023-05-10T13:06:39;98793.00;;;19.40
68012;BMP180;54794;48.348;7.878;2023-05-10T13:09:06;98794.00;;;19.30
68012;BMP180;54794;48.348;7.878;2023-05-10T13:11:33;98794.00;;;19.50
68012;BMP180;54794;48.348;7.878;2023-05-10T13:14:00;98785.00;;;19.40
68012;BMP180;54794;48.348;7.878;2023-05-10T13:16:27;98796.00;;;19.40
68012;BMP180;54794;48.348;7.878;2023-05-10T13:18:54;98791.00;;;20.50
68012;BMP180;54794;48.348;7.878;2023-05-10T13:21:21;98780.00;;;20.70
68012;BMP180;54794;48.348;7.878;2023-05-10T13:23:48;98786.00;;;20.70
68012;BMP180;54794;48.348;7.878;2023-05-10T13:26:15;98776.00;;;21.60
68012;BMP180;54794;48.348;7.878;2023-05-10T13:28:43;98766.00;;;21.10
68012;BMP180;54794;48.348;7.878;2023-05-10T13:31:10;98771.00;;;20.90
68012;BMP180;54794;48.348;7.878;2023-05-10T13:33:37;98776.00;;;20.70
68012;BMP180;54794;48.348;7.878;2023-05-10T13:36:04;98776.00;;;20.50
68012;BMP180;54794;48.348;7.878;2023-05-10T13:38:31;98766.00;;;21.20
68012;BMP180;54794;48.348;7.878;2023-05-10T13:40:58;98765.00;;;21.90
68012;BMP180;54794;48.348;7.878;2023-05-10T13:43:25;98753.00;;;21.20
68012;BMP180;54794;48.348;7.878;2023-05-10T13:45:52;98767.00;;;20.70
68012;BMP180;54794;48.348;7.878;2023-05-10T13:48:19;98771.00;;;21.00
68012;BMP180;54794;48.348;7.878;2023-05-10T13:50:46;98755.00;;;20.40
68012;BMP180;54794;48.348;7.878;2023-05-10T13:53:13;98772.00;;;20.60
68012;BMP180;54794;48.348;7.878;2023-05-10T13:55:41;98767.00;;;21.80
68012;BMP180;54794;48.348;7.878;2023-05-10T13:58:08;98765.00;;;21.70
68012;BMP180;54794;48.348;7.878;2023-05-10T14:00:35;98760.00;;;21.20
68012;BMP180;54794;48.348;7.878;2023-05-10T14:03:02;98762.00;;;20.80
68012;BMP180;54794;48.348;7.878;2023-05-10T14:05:29;98756.00;;;20.60
68012;BMP180;54794;48.348;7.878;2023-05-10T14:07:56;98765.00;;;20.50
68012;BMP180;54794;48.348;7.878;2023-05-10T14:10:23;98765.00;;;20.10
68012;BMP180;54794;48.348;7.878;2023-05-10T14:12:50;98770.00;;;19.90
68012;BMP180;54794;48.348;7.878;2023-05-10T14:15:17;98768.00;;;19.60
68012;BMP180;54794;48.348;7.878;2023-05-10T14:17:44;98775.00;;;19.80
68012;BMP180;54794;48.348;7.878;2023-05-10T14:20:11;98773.00;;;19.60
68012;BMP180;54794;48.348;7.878;2023-05-10T14:22:38;98770.00;;;19.80
68012;BMP180;54794;48.348;7.878;2023-05-10T14:25:07;98776.00;;;19.00
68012;BMP180;54794;48.348;7.878;2023-05-10T14:27:34;98780.00;;;19.40
68012;BMP180;54794;48.348;7.878;2023-05-10T14:30:01;98787.00;;;18.20
68012;BMP180;54794;48.348;7.878;2023-05-10T14:32:28;98787.00;;;18.30
68012;BMP180;54794;48.348;7.878;2023-05-10T14:34:55;98795.00;;;18.40
68012;BMP180;54794;48.348;7.878;2023-05-10T14:37:22;98786.00;;;19.10
68012;BMP180;54794;48.348;7.878;2023-05-10T14:39:50;98787.00;;;19.30
68012;BMP180;54794;48.348;7.878;2023-05-10T14:42:17;98794.00;;;19.10
68012;BMP180;54794;48.348;7.878;2023-05-10T14:44:45;98791.00;;;18.70
68012;BMP180;54794;48.348;7.878;2023-05-10T14:47:12;98802.00;;;18.30
68012;BMP180;54794;48.348;7.878;2023-05-10T14:49:40;98799.00;;;18.10
68012;BMP180;54794;48.348;7.878;2023-05-10T14:52:08;98804.00;;;18.60
68012;BMP180;54794;48.348;7.878;2023-05-10T14:54:35;98791.00;;;18.30
68012;BMP180;54794;48.348;7.878;2023-05-10T14:57:02;98791.00;;;18.50
68012;BMP180;54794;48.348;7.878;2023-05-10T14:59:29;98799.00;;;18.40
68012;BMP180;54794;48.348;7.878;2023-05-10T15:02:14;98784.00;;;18.40